Time;durP1;ratioP1;P1;durP2;ratioP2;P2;SDS_P1;SDS_P2;PMS_P1;PMS_P2;Temp;Humidity;BMP_temperature;BMP_pressure;BME280_temperature;BME280_humidity;BME280_pressure;Samples;Min_cycle;Max_cycle;Signal;HPM_P1;HPM_P2
2022/06/18 00:00:57;;;;;;;;;;;26.00;72.60;;;;;;5132932;27;20324;-69
2022/06/18 00:03:24;;;;;;;;;;;26.00;72.80;;;;;;5132924;27;20002;-69
2022/06/18 00:05:51;;;;;;;;;;;26.00;72.80;;;;;;5133018;27;19994;-69
2022/06/18 00:08:25;;;;;;;;;;;25.90;72.90;;;;;;5131511;27;20351;-69
2022/06/18 00:13:39;;;;;;;;;;;25.90;73.00;;;;;;5133225;27;19910;-70
2022/06/18 00:13:42;;;;;;;;;;;25.90;72.80;;;;;;5133008;27;19911;-69
2022/06/18 00:16:12;;;;;;;;;;;25.80;72.80;;;;;;5132850;27;19903;-69
2022/06/18 00:18:38;;;;;;;;;;;25.80;72.90;;;;;;5133135;27;19910;-69
2022/06/18 00:21:05;;;;;;;;;;;25.80;72.90;;;;;;5133209;27;19919;-69
2022/06/18 00:23:31;;;;;;;;;;;25.80;73.00;;;;;;5132668;27;19911;-69
2022/06/18 00:25:57;;;;;;;;;;;25.80;73.20;;;;;;5132126;27;20212;-69
2022/06/18 00:28:24;;;;;;;;;;;25.80;73.60;;;;;;5130999;28;19903;-69
2022/06/18 00:30:50;;;;;;;;;;;25.80;73.60;;;;;;5132426;27;19904;-69
2022/06/18 00:33:20;;;;;;;;;;;25.80;73.60;;;;;;5132685;27;20307;-68
2022/06/18 00:35:47;;;;;;;;;;;25.80;73.80;;;;;;5132397;27;20120;-70
2022/06/18 00:38:14;;;;;;;;;;;25.80;74.20;;;;;;5132584;27;19904;-69
2022/06/18 00:40:42;;;;;;;;;;;25.70;74.50;;;;;;5132542;27;19908;-68
2022/06/18 00:43:14;;;;;;;;;;;25.70;74.70;;;;;;5132381;27;20077;-69
2022/06/18 00:45:40;;;;;;;;;;;25.80;74.70;;;;;;5132561;27;19903;-69
2022/06/18 00:48:27;;;;;;;;;;;25.80;75.00;;;;;;5132380;27;19983;-68
2022/06/18 00:50:55;;;;;;;;;;;25.80;74.70;;;;;;5132706;27;19994;-68
2022/06/18 00:53:31;;;;;;;;;;;25.70;74.60;;;;;;5132211;27;19903;-69
2022/06/18 00:56:02;;;;;;;;;;;25.60;74.70;;;;;;5132151;27;20382;-68
2022/06/18 00:58:33;;;;;;;;;;;25.60;74.80;;;;;;5132465;27;20030;-68
2022/06/18 01:01:00;;;;;;;;;;;25.60;74.90;;;;;;5131996;28;19971;-68
2022/06/18 01:03:33;;;;;;;;;;;25.50;75.10;;;;;;5130820;28;19964;-68
2022/06/18 01:06:04;;;;;;;;;;;25.50;75.30;;;;;;5130572;28;19981;-68
2022/06/18 01:08:32;;;;;;;;;;;25.40;75.50;;;;;;5131982;27;19911;-68
2022/06/18 01:11:02;;;;;;;;;;;25.40;75.70;;;;;;5132006;27;19911;-68
2022/06/18 01:13:36;;;;;;;;;;;25.40;75.70;;;;;;5132170;27;19910;-68
2022/06/18 01:16:03;;;;;;;;;;;25.30;76.00;;;;;;5132084;27;20006;-69
2022/06/18 01:18:29;;;;;;;;;;;25.30;76.20;;;;;;5131846;27;19904;-69
2022/06/18 01:21:02;;;;;;;;;;;25.30;76.00;;;;;;5132174;27;19947;-69
2022/06/18 01:23:41;;;;;;;;;;;25.40;75.50;;;;;;5132175;27;19912;-69
2022/06/18 01:26:08;;;;;;;;;;;25.40;75.20;;;;;;5132193;27;19904;-68
2022/06/18 01:28:34;;;;;;;;;;;25.40;75.20;;;;;;5132373;27;19903;-69
2022/06/18 01:31:00;;;;;;;;;;;25.40;75.60;;;;;;5132242;27;19904;-69
2022/06/18 01:33:26;;;;;;;;;;;25.40;75.10;;;;;;5132340;27;20400;-69
2022/06/18 01:35:53;;;;;;;;;;;25.40;74.90;;;;;;5132024;28;19947;-69
2022/06/18 01:38:20;;;;;;;;;;;25.40;75.20;;;;;;5135014;27;20013;-71
2022/06/18 01:40:51;;;;;;;;;;;25.30;75.10;;;;;;5135660;27;20048;-69
2022/06/18 01:43:17;;;;;;;;;;;25.30;75.40;;;;;;5135545;27;19914;-69
2022/06/18 01:45:44;;;;;;;;;;;25.30;76.20;;;;;;5135338;27;20000;-69
2022/06/18 01:48:29;;;;;;;;;;;25.10;76.40;;;;;;5133989;27;19909;-69
2022/06/18 01:50:59;;;;;;;;;;;25.10;76.70;;;;;;5135419;27;19903;-69
2022/06/18 01:53:29;;;;;;;;;;;25.00;76.70;;;;;;5135642;27;20327;-69
2022/06/18 01:56:09;;;;;;;;;;;25.00;76.90;;;;;;5135569;27;20311;-69
2022/06/18 01:58:40;;;;;;;;;;;25.00;77.00;;;;;;5135479;27;19903;-69
2022/06/18 02:01:09;;;;;;;;;;;25.00;77.20;;;;;;5135379;27;19921;-69
2022/06/18 02:03:36;;;;;;;;;;;25.00;77.30;;;;;;5135073;27;19969;-69
2022/06/18 02:06:02;;;;;;;;;;;24.90;77.20;;;;;;5135496;27;20359;-69
2022/06/18 02:08:28;;;;;;;;;;;24.90;77.20;;;;;;5135060;27;19904;-70
2022/06/18 02:10:56;;;;;;;;;;;24.90;77.40;;;;;;5135082;27;19972;-69
2022/06/18 02:13:23;;;;;;;;;;;24.90;77.20;;;;;;5135084;27;19909;-70
2022/06/18 02:15:50;;;;;;;;;;;25.00;77.10;;;;;;5135072;27;20089;-69
2022/06/18 02:18:17;;;;;;;;;;;25.00;77.00;;;;;;5133363;27;19944;-69
2022/06/18 02:20:51;;;;;;;;;;;25.00;77.00;;;;;;5134821;27;20312;-69
2022/06/18 02:23:18;;;;;;;;;;;24.90;77.40;;;;;;5134778;27;19907;-69
2022/06/18 02:25:44;;;;;;;;;;;24.90;77.60;;;;;;5135018;27;19951;-69
2022/06/18 02:28:12;;;;;;;;;;;24.90;77.30;;;;;;5134705;27;20410;-68
2022/06/18 02:30:38;;;;;;;;;;;24.90;75.60;;;;;;5135121;27;19904;-69
2022/06/18 02:33:14;;;;;;;;;;;25.00;74.50;;;;;;5134761;27;20335;-69
2022/06/18 02:35:39;;;;;;;;;;;25.10;73.90;;;;;;5134973;27;19926;-70
2022/06/18 02:38:15;;;;;;;;;;;25.10;73.80;;;;;;5134902;27;20304;-70
2022/06/18 02:40:41;;;;;;;;;;;25.10;73.40;;;;;;5134875;27;19970;-69
2022/06/18 02:43:06;;;;;;;;;;;25.20;72.90;;;;;;5134539;27;20364;-68
2022/06/18 02:45:33;;;;;;;;;;;25.20;72.70;;;;;;5134406;27;20059;-69
2022/06/18 02:47:59;;;;;;;;;;;25.20;72.30;;;;;;5134159;27;19935;-69
2022/06/18 02:50:27;;;;;;;;;;;25.10;71.70;;;;;;5134340;27;19977;-69
2022/06/18 02:52:55;;;;;;;;;;;25.20;71.00;;;;;;5134462;27;19903;-69
2022/06/18 02:55:26;;;;;;;;;;;25.20;70.00;;;;;;5134379;27;20364;-69
2022/06/18 02:57:55;;;;;;;;;;;25.30;69.10;;;;;;5134445;27;19956;-69
2022/06/18 03:00:21;;;;;;;;;;;25.30;69.10;;;;;;5134646;27;20343;-68
2022/06/18 03:02:47;;;;;;;;;;;25.40;68.60;;;;;;5134544;27;20304;-68
2022/06/18 03:05:26;;;;;;;;;;;25.50;68.80;;;;;;5134154;27;19976;-69
2022/06/18 03:07:51;;;;;;;;;;;25.40;69.30;;;;;;5134397;27;19903;-69
2022/06/18 03:13:02;;;;;;;;;;;25.30;70.10;;;;;;5134130;27;19910;-70
2022/06/18 03:15:30;;;;;;;;;;;25.30;69.90;;;;;;5134388;27;19932;-69
2022/06/18 03:17:58;;;;;;;;;;;25.30;69.90;;;;;;5132412;27;19923;-68
2022/06/18 03:20:27;;;;;;;;;;;25.30;70.30;;;;;;5133823;27;19907;-71
2022/06/18 03:22:53;;;;;;;;;;;25.20;70.60;;;;;;5132906;27;20260;-69
2022/06/18 03:25:19;;;;;;;;;;;25.10;70.90;;;;;;5134517;27;19960;-69
2022/06/18 03:27:45;;;;;;;;;;;25.10;71.00;;;;;;5134330;27;19994;-69
2022/06/18 03:30:11;;;;;;;;;;;25.00;71.00;;;;;;5134600;27;19907;-69
2022/06/18 03:32:37;;;;;;;;;;;25.00;71.20;;;;;;5134116;27;19998;-68
2022/06/18 03:35:03;;;;;;;;;;;24.90;71.20;;;;;;5134293;27;19954;-69
2022/06/18 03:37:29;;;;;;;;;;;25.00;70.70;;;;;;5133899;27;20271;-68
2022/06/18 03:39:54;;;;;;;;;;;25.00;70.60;;;;;;5133721;27;19910;-69
2022/06/18 03:42:21;;;;;;;;;;;24.80;70.90;;;;;;5134265;27;19911;-69
2022/06/18 03:44:47;;;;;;;;;;;24.90;71.10;;;;;;5134004;27;20049;-68
2022/06/18 03:47:13;;;;;;;;;;;24.80;71.40;;;;;;5134206;27;19945;-69
2022/06/18 03:49:39;;;;;;;;;;;24.70;71.80;;;;;;5132372;27;19903;-68
2022/06/18 03:52:06;;;;;;;;;;;24.70;72.30;;;;;;5133835;27;19914;-69
2022/06/18 03:54:32;;;;;;;;;;;24.60;72.60;;;;;;5133874;27;19990;-69
2022/06/18 03:56:58;;;;;;;;;;;24.60;72.80;;;;;;5133536;27;19938;-68
2022/06/18 03:59:23;;;;;;;;;;;24.60;73.10;;;;;;5133708;27;19948;-69
2022/06/18 04:01:50;;;;;;;;;;;24.60;73.20;;;;;;5132341;27;20275;-69
2022/06/18 04:04:16;;;;;;;;;;;24.60;73.50;;;;;;5133103;27;20010;-69
2022/06/18 04:06:42;;;;;;;;;;;24.60;73.80;;;;;;5133036;27;19912;-69
2022/06/18 04:09:08;;;;;;;;;;;24.60;74.10;;;;;;5133429;27;19907;-68
2022/06/18 04:11:34;;;;;;;;;;;24.40;74.60;;;;;;5133220;27;19907;-68
2022/06/18 04:14:02;;;;;;;;;;;24.40;75.20;;;;;;5131964;27;19910;-68
2022/06/18 04:16:28;;;;;;;;;;;24.40;75.70;;;;;;5133714;27;19994;-68
2022/06/18 04:18:55;;;;;;;;;;;24.40;76.00;;;;;;5134201;27;20003;-68
2022/06/18 04:21:20;;;;;;;;;;;24.40;76.30;;;;;;5134634;27;19919;-68
2022/06/18 04:23:46;;;;;;;;;;;24.40;76.40;;;;;;5134184;28;19903;-68
2022/06/18 04:26:12;;;;;;;;;;;24.40;76.70;;;;;;5134127;28;20002;-68
2022/06/18 04:28:38;;;;;;;;;;;24.40;76.90;;;;;;5133732;27;19907;-68
2022/06/18 04:31:04;;;;;;;;;;;24.40;77.10;;;;;;5133746;27;20267;-68
2022/06/18 04:33:31;;;;;;;;;;;24.40;77.40;;;;;;5133617;27;20330;-68
2022/06/18 04:35:57;;;;;;;;;;;24.40;77.50;;;;;;5133542;27;19907;-68
2022/06/18 04:38:23;;;;;;;;;;;24.50;77.50;;;;;;5134031;27;20355;-68
2022/06/18 04:40:49;;;;;;;;;;;24.60;77.60;;;;;;5134000;27;19951;-68
2022/06/18 04:43:15;;;;;;;;;;;24.60;77.90;;;;;;5134270;27;20386;-68
2022/06/18 04:45:41;;;;;;;;;;;24.60;77.80;;;;;;5133873;27;19943;-68
2022/06/18 04:48:07;;;;;;;;;;;24.60;77.90;;;;;;5133875;28;20309;-67
2022/06/18 04:50:34;;;;;;;;;;;24.80;77.80;;;;;;5133896;27;19954;-68
2022/06/18 04:53:00;;;;;;;;;;;24.90;77.80;;;;;;5133892;27;19926;-68
2022/06/18 04:55:26;;;;;;;;;;;24.90;77.70;;;;;;5132502;28;20300;-68
2022/06/18 04:57:52;;;;;;;;;;;25.00;77.50;;;;;;5133763;27;19932;-68
2022/06/18 05:00:18;;;;;;;;;;;25.10;77.60;;;;;;5132462;28;19927;-68
2022/06/18 05:02:44;;;;;;;;;;;25.20;77.50;;;;;;5133791;27;20341;-68
2022/06/18 05:05:18;;;;;;;;;;;25.20;77.50;;;;;;5133646;27;19954;-68
2022/06/18 05:07:44;;;;;;;;;;;25.30;77.50;;;;;;5134266;27;20350;-68
2022/06/18 05:10:10;;;;;;;;;;;25.30;77.70;;;;;;5133699;27;20001;-70
2022/06/18 05:12:36;;;;;;;;;;;25.20;78.10;;;;;;5135495;27;19982;-67
2022/06/18 05:15:02;;;;;;;;;;;25.10;78.70;;;;;;5137585;27;19953;-70
2022/06/18 05:17:29;;;;;;;;;;;25.10;79.00;;;;;;5137021;27;20267;-70
2022/06/18 05:19:55;;;;;;;;;;;25.00;79.40;;;;;;5137058;27;19925;-67
2022/06/18 05:22:21;;;;;;;;;;;25.00;79.60;;;;;;5136823;27;20370;-68
2022/06/18 05:24:47;;;;;;;;;;;25.00;79.70;;;;;;5136852;27;19911;-68
2022/06/18 05:27:25;;;;;;;;;;;25.00;80.10;;;;;;5136806;27;20335;-68
2022/06/18 05:29:52;;;;;;;;;;;25.00;79.70;;;;;;5136898;27;19910;-68
2022/06/18 05:32:17;;;;;;;;;;;25.30;79.70;;;;;;5136760;27;19907;-68
2022/06/18 05:34:43;;;;;;;;;;;26.10;78.40;;;;;;5136890;27;19911;-68
2022/06/18 05:37:17;;;;;;;;;;;26.50;76.80;;;;;;5136570;27;19911;-68
2022/06/18 05:39:42;;;;;;;;;;;26.80;76.20;;;;;;5137118;27;19942;-68
2022/06/18 05:42:09;;;;;;;;;;;27.50;75.20;;;;;;5136574;27;20351;-68
2022/06/18 05:44:35;;;;;;;;;;;28.70;73.00;;;;;;5136728;27;19904;-70
2022/06/18 05:47:02;;;;;;;;;;;29.30;71.70;;;;;;5136299;27;20012;-69
2022/06/18 05:49:28;;;;;;;;;;;30.20;70.60;;;;;;5136250;27;19972;-69
2022/06/18 05:51:54;;;;;;;;;;;30.50;69.30;;;;;;5136237;27;20303;-70
2022/06/18 05:54:20;;;;;;;;;;;29.50;70.70;;;;;;5135750;27;19903;-68
2022/06/18 05:56:45;;;;;;;;;;;29.00;72.00;;;;;;5135932;27;19955;-69
2022/06/18 05:59:11;;;;;;;;;;;28.80;72.60;;;;;;5135871;27;19903;-69
2022/06/18 06:01:37;;;;;;;;;;;29.00;73.00;;;;;;5135835;27;20027;-69
2022/06/18 06:04:03;;;;;;;;;;;29.90;71.70;;;;;;5135624;27;20015;-69
2022/06/18 06:06:29;;;;;;;;;;;30.90;70.10;;;;;;5134752;27;20388;-69
2022/06/18 06:08:55;;;;;;;;;;;31.70;68.80;;;;;;5135942;27;20440;-69
2022/06/18 06:11:30;;;;;;;;;;;32.70;67.10;;;;;;5135944;27;19907;-71
2022/06/18 06:13:59;;;;;;;;;;;32.70;66.40;;;;;;5136060;27;19903;-70
2022/06/18 06:16:26;;;;;;;;;;;31.60;67.90;;;;;;5135795;27;19984;-69
2022/06/18 06:18:52;;;;;;;;;;;30.60;70.20;;;;;;5136308;27;19923;-69
2022/06/18 06:21:18;;;;;;;;;;;30.20;71.60;;;;;;5135982;27;19926;-69
2022/06/18 06:23:44;;;;;;;;;;;30.30;71.40;;;;;;5134868;27;19921;-70
2022/06/18 06:26:30;;;;;;;;;;;30.10;71.70;;;;;;5136512;27;19903;-69
2022/06/18 06:28:56;;;;;;;;;;;29.90;72.50;;;;;;5135927;27;19956;-70
2022/06/18 06:31:22;;;;;;;;;;;30.20;72.30;;;;;;5136079;27;19903;-69
2022/06/18 06:33:48;;;;;;;;;;;30.50;71.70;;;;;;5135600;27;19907;-70
2022/06/18 06:36:14;;;;;;;;;;;30.60;71.30;;;;;;5135669;27;19950;-71
2022/06/18 06:38:40;;;;;;;;;;;31.10;70.90;;;;;;5135679;27;19910;-69
2022/06/18 06:41:10;;;;;;;;;;;30.80;70.70;;;;;;5135758;27;19912;-69
2022/06/18 06:43:36;;;;;;;;;;;30.00;72.80;;;;;;5135934;27;19946;-69
2022/06/18 06:46:02;;;;;;;;;;;30.00;72.70;;;;;;5136108;27;20263;-69
2022/06/18 06:48:28;;;;;;;;;;;30.30;72.90;;;;;;5135619;27;20006;-69
2022/06/18 06:50:53;;;;;;;;;;;30.50;72.30;;;;;;5135931;27;19903;-70
2022/06/18 06:53:20;;;;;;;;;;;30.10;73.00;;;;;;5135763;27;19911;-69
2022/06/18 06:58:30;;;;;;;;;;;29.00;76.00;;;;;;5135292;27;20239;-70
2022/06/18 07:00:57;;;;;;;;;;;29.30;76.10;;;;;;5135282;27;19907;-70
2022/06/18 07:03:25;;;;;;;;;;;30.30;74.70;;;;;;5135344;27;19911;-70
2022/06/18 07:05:51;;;;;;;;;;;31.20;73.10;;;;;;5135410;27;20248;-69
2022/06/18 07:08:17;;;;;;;;;;;32.10;71.60;;;;;;5135061;27;19907;-70
2022/06/18 07:10:48;;;;;;;;;;;32.60;69.80;;;;;;5135043;27;19903;-70
2022/06/18 07:13:14;;;;;;;;;;;32.30;69.50;;;;;;5135735;27;19925;-69
2022/06/18 07:15:40;;;;;;;;;;;30.80;71.60;;;;;;5135048;27;20345;-70
2022/06/18 07:18:11;;;;;;;;;;;30.40;72.90;;;;;;5133523;27;19942;-70
2022/06/18 07:20:36;;;;;;;;;;;30.00;73.10;;;;;;5135178;27;19912;-70
2022/06/18 07:23:02;;;;;;;;;;;29.80;73.00;;;;;;5133532;27;19909;-69
2022/06/18 07:25:28;;;;;;;;;;;28.70;75.10;;;;;;5135220;27;19907;-70
2022/06/18 07:27:54;;;;;;;;;;;28.50;76.50;;;;;;5133439;27;19979;-69
2022/06/18 07:30:20;;;;;;;;;;;28.80;75.00;;;;;;5135214;27;19904;-69
2022/06/18 07:32:47;;;;;;;;;;;29.30;74.90;;;;;;5134547;27;19903;-70
2022/06/18 07:35:18;;;;;;;;;;;29.10;73.70;;;;;;5134748;27;20220;-69
2022/06/18 07:37:43;;;;;;;;;;;29.50;72.80;;;;;;5134667;27;19907;-70
2022/06/18 07:40:09;;;;;;;;;;;29.80;72.50;;;;;;5134850;27;20025;-70
2022/06/18 07:42:35;;;;;;;;;;;30.30;70.50;;;;;;5134766;27;19907;-70
2022/06/18 07:45:01;;;;;;;;;;;30.80;68.60;;;;;;5134586;27;19910;-70
2022/06/18 07:47:27;;;;;;;;;;;30.90;67.80;;;;;;5134469;27;20265;-69
2022/06/18 07:49:53;;;;;;;;;;;30.90;67.80;;;;;;5133964;27;19903;-69
2022/06/18 07:52:18;;;;;;;;;;;30.90;67.60;;;;;;5134020;27;19946;-70
2022/06/18 07:54:45;;;;;;;;;;;30.90;67.50;;;;;;5134142;27;19904;-70
2022/06/18 07:57:10;;;;;;;;;;;31.00;66.60;;;;;;5134223;27;19959;-69
2022/06/18 07:59:38;;;;;;;;;;;30.60;66.80;;;;;;5134073;27;20241;-71
2022/06/18 08:02:05;;;;;;;;;;;30.80;67.00;;;;;;5133851;27;20003;-70
2022/06/18 08:04:30;;;;;;;;;;;31.10;66.80;;;;;;5133566;27;19915;-69
2022/06/18 08:06:56;;;;;;;;;;;31.50;65.60;;;;;;5133589;27;19933;-70
2022/06/18 08:09:22;;;;;;;;;;;31.80;64.90;;;;;;5133779;27;19904;-70
2022/06/18 08:11:48;;;;;;;;;;;31.70;64.50;;;;;;5133702;27;19939;-70
2022/06/18 08:14:14;;;;;;;;;;;32.00;64.60;;;;;;5133512;27;19911;-70
2022/06/18 08:16:41;;;;;;;;;;;32.40;64.60;;;;;;5133639;27;19933;-68
2022/06/18 08:19:07;;;;;;;;;;;32.60;63.90;;;;;;5133757;27;19903;-69
2022/06/18 08:21:38;;;;;;;;;;;32.90;62.50;;;;;;5133725;27;20347;-69
2022/06/18 08:24:05;;;;;;;;;;;33.00;62.30;;;;;;5133808;27;20335;-70
2022/06/18 08:26:32;;;;;;;;;;;32.80;62.30;;;;;;5134172;27;19946;-69
2022/06/18 08:28:58;;;;;;;;;;;32.30;62.40;;;;;;5133753;27;19907;-68
2022/06/18 08:31:24;;;;;;;;;;;32.90;62.50;;;;;;5133761;27;20287;-69
2022/06/18 08:33:50;;;;;;;;;;;33.70;65.60;;;;;;5133547;28;20370;-69
2022/06/18 08:36:16;;;;;;;;;;;33.70;61.20;;;;;;5134058;28;19992;-68
2022/06/18 08:38:43;;;;;;;;;;;33.60;64.50;;;;;;5133855;27;19914;-69
2022/06/18 08:41:27;;;;;;;;;;;34.00;65.70;;;;;;5133511;27;19918;-69
2022/06/18 08:44:02;;;;;;;;;;;34.30;65.60;;;;;;5133728;27;20364;-69
2022/06/18 08:46:46;;;;;;;;;;;34.80;63.80;;;;;;5133844;27;19942;-70
2022/06/18 08:49:28;;;;;;;;;;;35.10;63.20;;;;;;5137766;27;20048;-69
2022/06/18 08:51:54;;;;;;;;;;;35.20;63.10;;;;;;5137756;27;19903;-69
2022/06/18 08:54:33;;;;;;;;;;;35.40;63.00;;;;;;5137174;27;19903;-69
2022/06/18 08:57:07;;;;;;;;;;;35.00;63.20;;;;;;5137661;27;19942;-69
2022/06/18 08:59:59;;;;;;;;;;;35.20;63.30;;;;;;5137439;27;19903;-69
2022/06/18 09:02:31;;;;;;;;;;;35.40;63.10;;;;;;5134006;27;20390;-69
2022/06/18 09:04:57;;;;;;;;;;;35.50;62.50;;;;;;5136936;27;20272;-69
2022/06/18 09:07:25;;;;;;;;;;;35.40;63.90;;;;;;5137414;27;19903;-68
2022/06/18 09:10:12;;;;;;;;;;;35.30;63.80;;;;;;5136828;27;19903;-68
2022/06/18 09:12:50;;;;;;;;;;;34.90;64.40;;;;;;5136876;27;19907;-68
2022/06/18 09:15:24;;;;;;;;;;;35.10;64.70;;;;;;5137113;27;19923;-69
2022/06/18 09:18:08;;;;;;;;;;;35.00;63.70;;;;;;5136890;27;19903;-68
2022/06/18 09:20:37;;;;;;;;;;;35.00;63.20;;;;;;5136653;27;19914;-69
2022/06/18 09:23:07;;;;;;;;;;;34.60;63.30;;;;;;5137046;27;20262;-69
2022/06/18 09:25:34;;;;;;;;;;;34.40;64.40;;;;;;5137181;27;20090;-68
2022/06/18 09:28:05;;;;;;;;;;;34.40;64.80;;;;;;5136723;27;19903;-69
2022/06/18 09:30:40;;;;;;;;;;;34.60;64.00;;;;;;5136527;27;20277;-69
2022/06/18 09:33:25;;;;;;;;;;;34.70;63.20;;;;;;5136785;27;19910;-69
2022/06/18 09:35:53;;;;;;;;;;;34.60;61.90;;;;;;5125249;27;20010;-68
2022/06/18 09:38:24;;;;;;;;;;;34.40;62.60;;;;;;5136254;27;19903;-69
2022/06/18 09:40:51;;;;;;;;;;;34.10;63.00;;;;;;5136173;27;19918;-69
2022/06/18 09:43:21;;;;;;;;;;;34.10;62.80;;;;;;5136484;27;20351;-69
2022/06/18 09:45:49;;;;;;;;;;;34.30;63.10;;;;;;5136120;27;19903;-69
2022/06/18 09:48:15;;;;;;;;;;;34.20;62.50;;;;;;5136549;27;20261;-69
2022/06/18 09:50:52;;;;;;;;;;;34.20;62.20;;;;;;5136260;27;19910;-70
2022/06/18 09:53:20;;;;;;;;;;;33.90;63.10;;;;;;5136016;27;19948;-69
2022/06/18 09:55:51;;;;;;;;;;;33.80;63.60;;;;;;5136092;27;19904;-69
2022/06/18 09:58:23;;;;;;;;;;;33.90;64.00;;;;;;5135783;27;20315;-70
2022/06/18 10:00:50;;;;;;;;;;;33.70;64.10;;;;;;5136134;27;20301;-68
2022/06/18 10:09:03;;;;;;;;;;;33.10;66.00;;;;;;5136415;27;19915;-69
2022/06/18 10:11:28;;;;;;;;;;;33.10;66.80;;;;;;5136040;27;20365;-69
2022/06/18 10:14:06;;;;;;;;;;;33.30;66.50;;;;;;5135737;27;19904;-69
2022/06/18 10:16:54;;;;;;;;;;;33.50;66.70;;;;;;5135862;27;19919;-69
2022/06/18 10:19:29;;;;;;;;;;;33.50;67.30;;;;;;5136146;27;20254;-68
2022/06/18 10:22:08;;;;;;;;;;;33.40;68.50;;;;;;5135792;27;19918;-69
2022/06/18 10:24:57;;;;;;;;;;;33.40;68.70;;;;;;5136151;27;20350;-69
2022/06/18 10:27:41;;;;;;;;;;;33.30;68.40;;;;;;5128031;27;20235;-68
2022/06/18 10:30:07;;;;;;;;;;;33.00;69.80;;;;;;5135598;27;19972;-69
2022/06/18 10:32:48;;;;;;;;;;;32.80;70.20;;;;;;5135790;27;20263;-69
2022/06/18 10:35:21;;;;;;;;;;;32.70;70.20;;;;;;5135302;27;19998;-69
2022/06/18 10:37:47;;;;;;;;;;;32.30;70.20;;;;;;5135417;27;19903;-69
2022/06/18 10:40:30;;;;;;;;;;;32.00;70.80;;;;;;5135392;27;19904;-70
2022/06/18 10:42:55;;;;;;;;;;;31.80;71.70;;;;;;5135666;27;20232;-69
2022/06/18 10:45:34;;;;;;;;;;;31.80;72.50;;;;;;5135067;27;19904;-68
2022/06/18 10:47:59;;;;;;;;;;;31.80;73.30;;;;;;5135537;27;19997;-68
2022/06/18 10:50:25;;;;;;;;;;;31.90;74.10;;;;;;5135186;27;19949;-69
2022/06/18 10:53:12;;;;;;;;;;;32.00;73.90;;;;;;5135525;27;19904;-68
2022/06/18 10:55:38;;;;;;;;;;;32.10;73.10;;;;;;5135291;27;19907;-68
2022/06/18 10:58:15;;;;;;;;;;;32.20;70.50;;;;;;5135673;27;19910;-68
2022/06/18 11:00:54;;;;;;;;;;;32.20;71.10;;;;;;5135141;27;19959;-68
2022/06/18 11:03:21;;;;;;;;;;;32.00;72.50;;;;;;5135174;27;19958;-69
2022/06/18 11:05:47;;;;;;;;;;;31.90;72.70;;;;;;5135317;27;19951;-68
2022/06/18 11:08:33;;;;;;;;;;;31.70;72.80;;;;;;5135213;27;20423;-69
2022/06/18 11:11:04;;;;;;;;;;;31.40;73.60;;;;;;5134816;27;19911;-68
2022/06/18 11:13:35;;;;;;;;;;;31.20;74.50;;;;;;5134976;27;20331;-68
2022/06/18 11:16:10;;;;;;;;;;;30.90;75.50;;;;;;5135333;27;19974;-70
2022/06/18 11:18:42;;;;;;;;;;;30.50;77.20;;;;;;5135240;27;19922;-69
2022/06/18 11:21:12;;;;;;;;;;;30.40;78.00;;;;;;5135361;27;19911;-69
2022/06/18 11:23:44;;;;;;;;;;;30.20;77.60;;;;;;5134920;27;19907;-69
2022/06/18 11:26:15;;;;;;;;;;;29.90;78.40;;;;;;5135515;27;19903;-69
2022/06/18 11:28:43;;;;;;;;;;;29.80;78.60;;;;;;5135243;27;19935;-69
2022/06/18 11:31:13;;;;;;;;;;;29.60;79.80;;;;;;5134873;27;20354;-69
2022/06/18 11:33:40;;;;;;;;;;;29.50;80.40;;;;;;5135241;27;19942;-69
2022/06/18 11:36:07;;;;;;;;;;;29.30;80.80;;;;;;5134974;27;19903;-69
2022/06/18 11:38:33;;;;;;;;;;;29.10;80.10;;;;;;5133323;27;19942;-70
2022/06/18 11:41:09;;;;;;;;;;;28.80;82.00;;;;;;5134692;27;20286;-69
2022/06/18 11:43:34;;;;;;;;;;;28.90;81.20;;;;;;5134955;27;19963;-69
2022/06/18 11:46:19;;;;;;;;;;;28.70;81.70;;;;;;5134792;27;19903;-68
2022/06/18 11:48:50;;;;;;;;;;;28.40;83.00;;;;;;5135030;27;19926;-69
2022/06/18 11:51:34;;;;;;;;;;;28.00;83.20;;;;;;5134527;27;20291;-68
2022/06/18 11:54:18;;;;;;;;;;;27.40;85.40;;;;;;5134135;27;19910;-68
2022/06/18 11:56:55;;;;;;;;;;;26.90;92.00;;;;;;5133982;27;19952;-68
2022/06/18 11:59:27;;;;;;;;;;;26.00;94.70;;;;;;5134170;27;19903;-70
2022/06/18 12:02:04;;;;;;;;;;;25.10;98.50;;;;;;5134639;27;19911;-69
2022/06/18 12:04:36;;;;;;;;;;;24.00;99.90;;;;;;5133951;27;19919;-69
2022/06/18 12:07:02;;;;;;;;;;;23.70;99.90;;;;;;5133974;27;19953;-68
2022/06/18 12:09:28;;;;;;;;;;;23.90;99.90;;;;;;5133953;27;19904;-70
2022/06/18 12:12:02;;;;;;;;;;;23.80;99.90;;;;;;5134415;27;19970;-70
2022/06/18 12:14:28;;;;;;;;;;;24.10;99.90;;;;;;5134046;27;20443;-68
2022/06/18 12:17:01;;;;;;;;;;;24.10;99.90;;;;;;5133787;27;19994;-68
2022/06/18 12:19:44;;;;;;;;;;;24.20;99.90;;;;;;5134313;27;19908;-68
2022/06/18 12:22:16;;;;;;;;;;;24.30;99.90;;;;;;5133383;27;19911;-69
2022/06/18 12:24:50;;;;;;;;;;;24.30;99.90;;;;;;5134030;27;20229;-69
2022/06/18 12:27:21;;;;;;;;;;;24.60;99.90;;;;;;5134659;27;19992;-68
2022/06/18 12:30:05;;;;;;;;;;;25.00;99.90;;;;;;5134270;27;19915;-68
2022/06/18 12:32:49;;;;;;;;;;;25.50;99.90;;;;;;5134145;27;20312;-68
2022/06/18 12:35:26;;;;;;;;;;;26.00;99.90;;;;;;5134171;28;19910;-68
2022/06/18 12:37:55;;;;;;;;;;;26.30;99.90;;;;;;5134087;27;19903;-68
2022/06/18 12:40:23;;;;;;;;;;;26.60;99.90;;;;;;5133714;28;19904;-68
2022/06/18 12:42:54;;;;;;;;;;;26.90;99.90;;;;;;5134211;28;20423;-68
2022/06/18 12:45:26;;;;;;;;;;;27.00;99.90;;;;;;5133840;27;19903;-68
2022/06/18 12:47:52;;;;;;;;;;;27.10;99.90;;;;;;5134026;27;19910;-68
2022/06/18 12:50:21;;;;;;;;;;;26.90;99.90;;;;;;5133926;28;19907;-69
2022/06/18 12:52:50;;;;;;;;;;;26.60;99.90;;;;;;5133789;27;19903;-69
2022/06/18 12:55:16;;;;;;;;;;;26.50;99.90;;;;;;5134331;28;19956;-69
2022/06/18 12:57:52;;;;;;;;;;;26.70;99.90;;;;;;5133965;28;19907;-69
2022/06/18 13:00:20;;;;;;;;;;;26.80;99.90;;;;;;5133657;27;19903;-70
2022/06/18 13:02:51;;;;;;;;;;;27.20;99.90;;;;;;5133845;27;19907;-70
2022/06/18 13:05:36;;;;;;;;;;;27.30;99.40;;;;;;5133677;27;20451;-70
2022/06/18 13:08:16;;;;;;;;;;;27.50;98.80;;;;;;5133702;27;20366;-69
2022/06/18 13:10:42;;;;;;;;;;;27.60;97.80;;;;;;5134111;27;19911;-69
2022/06/18 13:13:27;;;;;;;;;;;27.80;97.50;;;;;;5133907;28;19903;-70
2022/06/18 13:16:13;;;;;;;;;;;27.60;99.90;;;;;;5134315;27;19943;-69
2022/06/18 13:18:42;;;;;;;;;;;27.10;99.90;;;;;;5133341;27;20359;-69
2022/06/18 13:21:09;;;;;;;;;;;26.70;99.90;;;;;;5132182;28;19981;-69
2022/06/18 13:29:21;;;;;;;;;;;25.10;99.90;;;;;;5134352;28;19957;-70
2022/06/18 13:32:06;;;;;;;;;;;25.20;99.90;;;;;;5134189;27;19911;-69
2022/06/18 13:34:31;;;;;;;;;;;25.40;99.90;;;;;;5137205;27;19910;-69
2022/06/18 13:37:20;;;;;;;;;;;25.60;99.90;;;;;;5137328;27;19903;-69
2022/06/18 13:39:49;;;;;;;;;;;25.90;99.90;;;;;;5128879;27;19956;-70
2022/06/18 13:42:21;;;;;;;;;;;26.20;99.90;;;;;;5137659;27;20278;-70
2022/06/18 13:44:55;;;;;;;;;;;26.50;99.90;;;;;;5137509;27;19911;-70
2022/06/18 13:47:24;;;;;;;;;;;26.50;99.90;;;;;;5137863;27;19966;-69
2022/06/18 13:49:59;;;;;;;;;;;26.90;99.90;;;;;;5136880;27;19942;-70
2022/06/18 13:52:35;;;;;;;;;;;26.90;99.90;;;;;;5137155;27;19932;-70
2022/06/18 13:55:01;;;;;;;;;;;27.30;99.90;;;;;;5137392;27;20240;-70
2022/06/18 13:57:34;;;;;;;;;;;27.30;99.90;;;;;;5136512;27;19911;-67
2022/06/18 14:00:03;;;;;;;;;;;27.30;99.10;;;;;;5136857;27;19904;-70
2022/06/18 14:02:34;;;;;;;;;;;27.30;98.70;;;;;;5136689;27;19950;-70
2022/06/18 14:05:08;;;;;;;;;;;27.40;95.20;;;;;;5136313;27;19922;-70
2022/06/18 14:07:35;;;;;;;;;;;27.50;93.70;;;;;;5136537;27;19904;-69
2022/06/18 14:10:10;;;;;;;;;;;27.70;92.80;;;;;;5136841;27;19910;-70
2022/06/18 14:12:37;;;;;;;;;;;27.90;91.40;;;;;;5136546;27;19903;-70
2022/06/18 14:15:06;;;;;;;;;;;28.20;91.00;;;;;;5136422;27;19911;-70
2022/06/18 14:17:42;;;;;;;;;;;28.60;90.70;;;;;;5136926;27;19961;-69
2022/06/18 14:20:19;;;;;;;;;;;28.90;89.70;;;;;;5136724;27;19903;-70
2022/06/18 14:22:55;;;;;;;;;;;28.90;85.60;;;;;;5136916;27;19911;-70
2022/06/18 14:25:21;;;;;;;;;;;29.00;84.20;;;;;;5136558;27;19903;-70
2022/06/18 14:27:48;;;;;;;;;;;29.30;86.10;;;;;;5134773;27;20313;-70
2022/06/18 14:30:20;;;;;;;;;;;29.50;84.10;;;;;;5136344;27;19925;-70
2022/06/18 14:32:48;;;;;;;;;;;29.80;83.00;;;;;;5136117;27;19907;-70
2022/06/18 14:35:38;;;;;;;;;;;29.90;79.20;;;;;;5136091;27;20365;-70
2022/06/18 14:38:05;;;;;;;;;;;29.90;80.80;;;;;;5136304;27;20335;-70
2022/06/18 14:43:38;;;;;;;;;;;30.30;80.60;;;;;;5136417;27;20279;-70
2022/06/18 14:46:09;;;;;;;;;;;30.60;81.00;;;;;;5135434;27;19904;-70
2022/06/18 14:48:53;;;;;;;;;;;30.50;81.20;;;;;;5135805;27;20343;-70
2022/06/18 14:51:22;;;;;;;;;;;30.40;82.20;;;;;;5135103;27;19960;-70